createdAt,value
2018-09-10T00:02:17.362Z,18.04
2018-09-10T00:04:46.466Z,18.02
2018-09-10T00:07:15.842Z,18.02
2018-09-10T00:09:44.596Z,18.01
2018-09-10T00:12:13.717Z,17.99
2018-09-10T00:14:42.517Z,17.99
2018-09-10T00:17:17.656Z,17.99
2018-09-10T00:19:46.771Z,17.99
2018-09-10T00:22:16.142Z,17.98
2018-09-10T00:24:45.657Z,17.94
2018-09-10T00:27:14.457Z,17.90
2018-09-10T00:29:43.275Z,17.88
2018-09-10T00:32:12.007Z,17.89
2018-09-10T00:34:42.174Z,17.87
2018-09-10T00:37:11.001Z,17.86
2018-09-10T00:39:39.766Z,17.85
2018-09-10T00:42:08.515Z,17.84
2018-09-10T00:44:37.579Z,17.84
2018-09-10T00:47:06.363Z,17.81
2018-09-10T00:49:35.525Z,17.77
2018-09-10T00:52:04.260Z,17.73
2018-09-10T00:54:33.361Z,17.70
2018-09-10T00:57:02.422Z,17.65
2018-09-10T00:59:31.290Z,17.61
2018-09-10T01:02:00.309Z,17.58
2018-09-10T01:04:29.268Z,17.55
2018-09-10T01:06:58.253Z,17.54
2018-09-10T01:09:27.068Z,17.53
2018-09-10T01:11:56.384Z,17.52
2018-09-10T01:14:25.132Z,17.49
2018-09-10T01:16:54.206Z,17.48
2018-09-10T01:19:23.010Z,17.44
2018-09-10T01:21:51.767Z,17.40
2018-09-10T01:24:20.971Z,17.38
2018-09-10T01:26:49.960Z,17.38
2018-09-10T01:29:19.074Z,17.38
2018-09-10T01:31:48.339Z,17.38
2018-09-10T01:34:22.555Z,17.38
2018-09-10T01:36:51.837Z,17.37
2018-09-10T01:39:20.865Z,17.37
2018-09-10T01:41:49.663Z,17.34
2018-09-10T01:44:18.710Z,17.31
2018-09-10T01:46:47.638Z,17.29
2018-09-10T01:49:16.440Z,17.28
2018-09-10T01:51:45.188Z,17.26
2018-09-10T01:54:13.994Z,17.25
2018-09-10T01:56:43.055Z,17.22
2018-09-10T01:59:11.867Z,17.18
2018-09-10T02:01:41.227Z,17.10
2018-09-10T02:04:10.196Z,17.08
2018-09-10T02:06:39.425Z,17.06
2018-09-10T02:09:09.574Z,17.04
2018-09-10T02:11:38.717Z,17.02
2018-09-10T02:14:07.752Z,17.00
2018-09-10T02:16:36.577Z,16.98
2018-09-10T02:19:06.291Z,16.97
2018-09-10T02:21:36.086Z,16.95
2018-09-10T02:24:05.136Z,16.94
2018-09-10T02:26:34.141Z,16.93
2018-09-10T02:29:03.397Z,16.92
2018-09-10T02:31:32.534Z,16.91
2018-09-10T02:34:01.338Z,16.89
2018-09-10T02:36:30.310Z,16.87
2018-09-10T02:38:59.058Z,16.84
2018-09-10T02:41:27.816Z,16.81
2018-09-10T02:43:57.114Z,16.77
2018-09-10T02:46:26.614Z,16.74
2018-09-10T02:48:56.347Z,16.73
2018-09-10T02:51:26.290Z,16.73
2018-09-10T02:53:56.192Z,16.73
2018-09-10T02:56:25.913Z,16.73
2018-09-10T02:58:55.787Z,16.72
2018-09-10T03:01:25.641Z,16.70
2018-09-10T03:03:55.385Z,16.69
2018-09-10T03:06:24.402Z,16.68
2018-09-10T03:08:53.675Z,16.69
2018-09-10T03:11:22.436Z,16.69
2018-09-10T03:13:51.156Z,16.67
2018-09-10T03:16:19.905Z,16.68
2018-09-10T03:18:49.181Z,16.67
2018-09-10T03:21:18.334Z,16.69
2018-09-10T03:23:47.927Z,16.69
2018-09-10T03:26:16.737Z,16.71
2018-09-10T03:28:46.244Z,16.72
2018-09-10T03:31:16.003Z,16.75
2018-09-10T03:33:44.828Z,16.75
2018-09-10T03:36:13.534Z,16.73
2018-09-10T03:38:42.329Z,16.75
2018-09-10T03:41:11.370Z,16.77
2018-09-10T03:43:40.084Z,16.79
2018-09-10T03:46:08.962Z,16.81
2018-09-10T03:48:38.291Z,16.82
2018-09-10T03:51:07.034Z,16.83
2018-09-10T03:53:36.291Z,16.83
2018-09-10T03:56:05.056Z,16.82
2018-09-10T03:58:33.812Z,16.80
2018-09-10T04:01:03.105Z,16.80
2018-09-10T04:03:32.078Z,16.79
2018-09-10T04:06:01.830Z,16.82
2018-09-10T04:08:30.857Z,16.83
2018-09-10T04:10:59.955Z,16.83
2018-09-10T04:13:29.110Z,16.86
2018-09-10T04:15:57.918Z,16.86
2018-09-10T04:18:26.988Z,16.88
2018-09-10T04:20:55.979Z,16.87
2018-09-10T04:23:24.702Z,16.87
2018-09-10T04:25:53.596Z,16.88
2018-09-10T04:28:22.368Z,16.88
2018-09-10T04:30:51.155Z,16.88
2018-09-10T04:33:20.266Z,16.89
2018-09-10T04:35:49.388Z,16.88
2018-09-10T04:38:19.193Z,16.88
2018-09-10T04:40:48.235Z,16.88
2018-09-10T04:43:17.604Z,16.88
2018-09-10T04:45:46.371Z,16.89
2018-09-10T04:48:15.131Z,16.89
2018-09-10T04:50:44.143Z,16.90
2018-09-10T04:53:14.007Z,16.91
2018-09-10T04:55:42.756Z,16.89
2018-09-10T04:58:11.765Z,16.92
2018-09-10T05:00:40.606Z,16.93
2018-09-10T05:03:09.738Z,16.95
2018-09-10T05:05:38.560Z,16.97
2018-09-10T05:08:07.720Z,16.99
2018-09-10T05:10:36.524Z,16.99
2018-09-10T05:13:05.301Z,17.01
2018-09-10T05:15:34.572Z,17.02
2018-09-10T05:18:03.802Z,17.04
2018-09-10T05:20:33.270Z,17.05
2018-09-10T05:23:02.412Z,17.08
2018-09-10T05:25:31.216Z,17.08
2018-09-10T05:28:00.367Z,17.09
2018-09-10T05:30:29.382Z,17.10
2018-09-10T05:32:58.197Z,17.11
2018-09-10T05:35:27.086Z,17.10
2018-09-10T05:37:56.666Z,17.09
2018-09-10T05:40:25.590Z,17.11
2018-09-10T05:42:54.747Z,17.13
2018-09-10T05:45:23.645Z,17.14
2018-09-10T05:47:52.883Z,17.16
2018-09-10T05:50:22.041Z,17.17
2018-09-10T05:52:51.223Z,17.21
2018-09-10T05:55:21.368Z,17.21
2018-09-10T05:57:50.726Z,17.24
2018-09-10T06:00:19.868Z,17.22
2018-09-10T06:02:49.108Z,17.23
2018-09-10T06:05:18.126Z,17.25
2018-09-10T06:07:46.919Z,17.26
2018-09-10T06:10:15.976Z,17.28
2018-09-10T06:12:45.339Z,17.28
2018-09-10T06:15:14.409Z,17.31
2018-09-10T06:17:43.274Z,17.35
2018-09-10T06:20:12.264Z,17.35
2018-09-10T06:22:41.471Z,17.37
2018-09-10T06:25:11.479Z,17.36
2018-09-10T06:27:40.930Z,17.37
2018-09-10T06:30:09.924Z,17.38
2018-09-10T06:32:39.323Z,17.42
2018-09-10T06:35:08.358Z,17.46
2018-09-10T06:37:37.781Z,17.52
2018-09-10T06:40:07.615Z,17.62
2018-09-10T06:42:37.066Z,17.74
2018-09-10T06:45:05.966Z,17.84
2018-09-10T06:47:35.053Z,17.91
2018-09-10T06:50:04.129Z,17.96
2018-09-10T06:52:33.879Z,18.02
2018-09-10T06:55:03.325Z,18.07
2018-09-10T06:57:32.925Z,18.08
2018-09-10T07:00:02.256Z,18.09
2018-09-10T07:02:31.364Z,18.08
2018-09-10T07:05:00.729Z,18.13
2018-09-10T07:07:29.703Z,18.17
2018-09-10T07:09:59.187Z,18.22
2018-09-10T07:12:28.277Z,18.28
2018-09-10T07:14:57.887Z,18.34
2018-09-10T07:17:26.618Z,18.40
2018-09-10T07:19:55.929Z,18.48
2018-09-10T07:22:24.747Z,18.50
2018-09-10T07:24:53.758Z,18.52
2018-09-10T07:27:22.521Z,18.52
2018-09-10T07:29:51.579Z,18.55
2018-09-10T07:32:20.643Z,18.57
2018-09-10T07:34:49.686Z,18.60
2018-09-10T07:37:18.657Z,18.65
2018-09-10T07:39:47.711Z,18.70
2018-09-10T07:42:16.480Z,18.74
2018-09-10T07:44:45.168Z,18.80
2018-09-10T07:47:13.959Z,18.83
2018-09-10T07:49:43.078Z,18.82
2018-09-10T07:52:11.795Z,18.86
2018-09-10T07:54:40.947Z,18.94
2018-09-10T07:57:09.944Z,19.06
2018-09-10T07:59:38.891Z,19.17
2018-09-10T08:02:07.968Z,19.23
2018-09-10T08:04:36.724Z,19.24
2018-09-10T08:07:05.515Z,19.24
2018-09-10T08:09:34.306Z,19.23
2018-09-10T08:12:03.425Z,19.27
2018-09-10T08:14:32.141Z,19.28
2018-09-10T08:17:01.488Z,19.31
2018-09-10T08:19:30.407Z,19.33
2018-09-10T08:21:59.152Z,19.40
2018-09-10T08:24:28.289Z,19.45
2018-09-10T08:26:57.871Z,19.54
2018-09-10T08:29:26.861Z,19.60
2018-09-10T08:31:56.194Z,19.67
2018-09-10T08:34:25.259Z,19.73
2018-09-10T08:36:54.624Z,19.76
2018-09-10T08:39:23.621Z,19.69
2018-09-10T08:41:52.530Z,19.70
2018-09-10T08:44:24.100Z,19.66
2018-09-10T08:46:52.825Z,19.68
2018-09-10T08:49:21.595Z,19.70
2018-09-10T08:51:50.649Z,19.70
2018-09-10T08:54:19.424Z,19.74
2018-09-10T08:56:48.581Z,19.85
2018-09-10T08:59:17.629Z,20.00
2018-09-10T09:01:46.776Z,20.13
2018-09-10T09:04:15.533Z,20.27
2018-09-10T09:06:44.611Z,20.29
2018-09-10T09:09:13.642Z,20.31
2018-09-10T09:11:42.666Z,20.34
2018-09-10T09:14:11.474Z,20.35
2018-09-10T09:16:40.488Z,20.39
2018-09-10T09:19:09.254Z,20.41
2018-09-10T09:21:38.037Z,20.40
2018-09-10T09:24:07.148Z,20.39
2018-09-10T09:26:35.900Z,20.38
2018-09-10T09:29:04.872Z,20.38
2018-09-10T09:31:34.154Z,20.40
2018-09-10T09:34:02.918Z,20.40
2018-09-10T09:36:36.853Z,20.42
2018-09-10T09:39:12.705Z,20.47
2018-09-10T09:41:46.532Z,20.52
2018-09-10T09:44:20.711Z,20.52
2018-09-10T09:46:49.700Z,20.55
2018-09-10T09:49:18.499Z,20.65
2018-09-10T09:51:47.887Z,20.82
2018-09-10T09:54:17.424Z,20.99
2018-09-10T09:56:46.557Z,21.18
2018-09-10T09:59:16.146Z,21.36
2018-09-10T10:01:51.939Z,21.42
2018-09-10T10:04:21.009Z,21.39
2018-09-10T10:06:50.074Z,21.29
2018-09-10T10:09:18.785Z,21.25
2018-09-10T10:11:47.833Z,21.38
2018-09-10T10:14:16.555Z,21.48
2018-09-10T10:16:51.835Z,21.49
2018-09-10T10:19:20.553Z,21.52
2018-09-10T10:21:49.303Z,21.57
2018-09-10T10:24:18.153Z,21.59
2018-09-10T10:26:46.866Z,21.61
2018-09-10T10:29:15.922Z,21.67
2018-09-10T10:31:44.736Z,21.65
2018-09-10T10:34:13.808Z,21.74
2018-09-10T10:36:42.894Z,21.90
2018-09-10T10:39:12.010Z,22.06
2018-09-10T10:41:40.756Z,22.15
2018-09-10T10:44:09.895Z,22.19
2018-09-10T10:46:39.012Z,22.10
2018-09-10T10:49:08.131Z,22.10
2018-09-10T10:51:36.857Z,22.02
2018-09-10T10:54:05.980Z,21.90
2018-09-10T10:56:34.721Z,21.86
2018-09-10T10:59:03.741Z,21.80
2018-09-10T11:01:32.692Z,21.72
2018-09-10T11:04:01.769Z,21.75
2018-09-10T11:06:30.486Z,21.78
2018-09-10T11:08:59.595Z,21.80
2018-09-10T11:11:28.360Z,21.81
2018-09-10T11:13:57.389Z,21.77
2018-09-10T11:16:26.395Z,21.82
2018-09-10T11:18:55.143Z,21.72
2018-09-10T11:21:24.784Z,21.76
2018-09-10T11:23:54.149Z,21.69
2018-09-10T11:26:22.880Z,21.56
2018-09-10T11:28:51.684Z,21.49
2018-09-10T11:31:20.436Z,21.57
2018-09-10T11:33:49.547Z,21.60
2018-09-10T11:36:18.312Z,21.56
2018-09-10T11:38:47.105Z,21.50
2018-09-10T11:41:16.125Z,21.51
2018-09-10T11:43:44.926Z,21.50
2018-09-10T11:46:14.298Z,21.41
2018-09-10T11:48:43.012Z,21.27
2018-09-10T11:51:12.061Z,21.25
2018-09-10T11:53:41.070Z,21.33
2018-09-10T11:56:10.438Z,21.25
2018-09-10T11:58:39.202Z,21.34
2018-09-10T12:01:08.365Z,21.40
2018-09-10T12:03:37.074Z,21.39
2018-09-10T12:06:05.781Z,21.41
2018-09-10T12:08:35.098Z,21.35
2018-09-10T12:11:04.166Z,21.40
2018-09-10T12:13:32.974Z,21.39
2018-09-10T12:16:02.265Z,21.37
2018-09-10T12:18:31.032Z,21.33
2018-09-10T12:21:00.166Z,21.25
2018-09-10T12:23:29.212Z,21.15
2018-09-10T12:25:58.394Z,21.19
2018-09-10T12:28:27.168Z,21.15
2018-09-10T12:30:56.288Z,21.15
2018-09-10T12:33:25.013Z,21.18
2018-09-10T12:35:54.204Z,21.11
2018-09-10T12:38:22.988Z,21.11
2018-09-10T12:40:52.079Z,21.13
2018-09-10T12:43:21.579Z,21.17
2018-09-10T12:45:50.903Z,21.25
2018-09-10T12:48:19.664Z,21.19
2018-09-10T12:50:48.412Z,21.19
2018-09-10T12:53:17.325Z,21.24
2018-09-10T12:55:46.290Z,21.19
2018-09-10T12:58:15.019Z,21.11
2018-09-10T13:00:43.888Z,21.04
2018-09-10T13:03:13.008Z,21.03
2018-09-10T13:05:41.800Z,20.98
2018-09-10T13:08:10.650Z,20.95
2018-09-10T13:10:39.589Z,20.99
2018-09-10T13:13:08.277Z,20.97
2018-09-10T13:15:38.046Z,21.02
2018-09-10T13:18:07.078Z,20.90
2018-09-10T13:20:35.913Z,20.86
2018-09-10T13:23:05.246Z,20.92
2018-09-10T13:25:34.070Z,20.93
2018-09-10T13:28:02.962Z,20.93
2018-09-10T13:30:32.007Z,20.84
2018-09-10T13:33:00.906Z,20.78
2018-09-10T13:35:32.515Z,20.79
2018-09-10T13:38:01.317Z,20.76
2018-09-10T13:40:30.248Z,20.84
2018-09-10T13:42:59.925Z,20.87
2018-09-10T13:45:28.678Z,20.91
2018-09-10T13:48:00.592Z,20.86
2018-09-10T13:50:29.905Z,20.80
2018-09-10T13:52:58.676Z,20.66
2018-09-10T13:55:27.550Z,20.71
2018-09-10T13:57:57.090Z,20.66
2018-09-10T14:00:25.901Z,20.61
2018-09-10T14:02:55.012Z,20.54
2018-09-10T14:05:23.788Z,20.55
2018-09-10T14:07:52.879Z,20.51
2018-09-10T14:10:21.935Z,20.48
2018-09-10T14:12:50.988Z,20.50
2018-09-10T14:15:21.672Z,20.54
2018-09-10T14:17:50.855Z,20.52
2018-09-10T14:20:20.327Z,20.59
2018-09-10T14:22:49.427Z,20.63
2018-09-10T14:25:18.320Z,20.67
2018-09-10T14:27:47.275Z,20.64
2018-09-10T14:30:16.001Z,20.53
2018-09-10T14:32:45.594Z,20.49
2018-09-10T14:35:14.671Z,20.51
2018-09-10T14:37:43.580Z,20.49
2018-09-10T14:40:12.380Z,20.52
2018-09-10T14:42:41.332Z,20.51
2018-09-10T14:45:10.846Z,20.56
2018-09-10T14:47:39.915Z,20.50
2018-09-10T14:50:09.079Z,20.51
2018-09-10T14:52:38.359Z,20.49
2018-09-10T14:55:07.384Z,20.48
2018-09-10T14:57:36.669Z,20.43
2018-09-10T15:00:06.090Z,20.36
2018-09-10T15:02:34.977Z,20.34
2018-09-10T15:05:04.001Z,20.38
2018-09-10T15:07:33.127Z,20.48
2018-09-10T15:10:01.885Z,20.51
2018-09-10T15:12:30.627Z,20.56
2018-09-10T15:14:59.673Z,20.58
2018-09-10T15:17:28.515Z,20.56
2018-09-10T15:19:57.337Z,20.57
2018-09-10T15:22:26.491Z,20.60
2018-09-10T15:24:55.637Z,20.65
2018-09-10T15:27:24.464Z,20.61
2018-09-10T15:29:53.438Z,20.65
2018-09-10T15:32:24.367Z,20.53
2018-09-10T15:34:53.128Z,20.47
2018-09-10T15:37:21.946Z,20.39
2018-09-10T15:39:50.945Z,20.26
2018-09-10T15:42:19.973Z,20.22
2018-09-10T15:44:49.270Z,20.20
2018-09-10T15:47:18.367Z,20.19
2018-09-10T15:49:47.934Z,20.21
2018-09-10T15:52:17.990Z,20.20
2018-09-10T15:54:47.561Z,20.13
2018-09-10T15:57:16.387Z,20.11
2018-09-10T15:59:45.475Z,20.09
2018-09-10T16:02:14.646Z,20.04
2018-09-10T16:04:43.672Z,20.01
2018-09-10T16:07:12.568Z,19.98
2018-09-10T16:09:41.735Z,19.95
2018-09-10T16:12:10.491Z,19.86
2018-09-10T16:14:39.247Z,19.78
2018-09-10T16:17:08.480Z,19.76
2018-09-10T16:19:37.601Z,19.76
2018-09-10T16:22:06.421Z,19.80
2018-09-10T16:24:36.032Z,19.81
2018-09-10T16:27:04.908Z,19.77
2018-09-10T16:29:33.877Z,19.79
2018-09-10T16:32:02.710Z,19.73
2018-09-10T16:34:31.474Z,19.75
2018-09-10T16:37:00.477Z,19.74
2018-09-10T16:39:29.920Z,19.74
2018-09-10T16:41:58.748Z,19.77
2018-09-10T16:44:27.624Z,19.76
2018-09-10T16:46:56.443Z,19.75
2018-09-10T16:49:25.212Z,19.76
2018-09-10T16:51:54.831Z,19.76
2018-09-10T16:54:23.645Z,19.74
2018-09-10T16:56:53.027Z,19.74
2018-09-10T16:59:21.872Z,19.75
2018-09-10T17:01:51.610Z,19.78
2018-09-10T17:04:21.070Z,19.80
2018-09-10T17:06:50.822Z,19.82
2018-09-10T17:09:20.217Z,19.85
2018-09-10T17:11:49.023Z,19.88
2018-09-10T17:14:17.826Z,19.91
2018-09-10T17:16:46.947Z,19.87
2018-09-10T17:19:15.808Z,19.79
2018-09-10T17:21:44.568Z,19.74
2018-09-10T17:24:13.570Z,19.69
2018-09-10T17:26:42.403Z,19.64
2018-09-10T17:29:12.071Z,19.58
2018-09-10T17:31:41.049Z,19.52
2018-09-10T17:34:09.890Z,19.51
2018-09-10T17:36:39.014Z,19.53
2018-09-10T17:39:08.875Z,19.53
2018-09-10T17:41:44.759Z,19.51
2018-09-10T17:44:13.550Z,19.45
2018-09-10T17:46:42.327Z,19.42
2018-09-10T17:49:11.074Z,19.39
2018-09-10T17:51:39.866Z,19.32
2018-09-10T17:54:09.188Z,19.26
2018-09-10T17:56:38.303Z,19.25
2018-09-10T17:59:13.930Z,19.23
2018-09-10T18:01:42.932Z,19.24
2018-09-10T18:04:11.720Z,19.25
2018-09-10T18:06:40.455Z,19.27
2018-09-10T18:09:11.332Z,19.25
2018-09-10T18:11:40.902Z,19.23
2018-09-10T18:14:09.931Z,19.23
2018-09-10T18:16:39.283Z,19.23
2018-09-10T18:19:08.255Z,19.24
2018-09-10T18:21:37.007Z,19.22
2018-09-10T18:24:06.519Z,19.19
2018-09-10T18:26:35.715Z,19.12
2018-09-10T18:29:04.464Z,19.09
2018-09-10T18:31:33.211Z,19.07
2018-09-10T18:34:04.248Z,19.06
2018-09-10T18:36:35.929Z,19.05
2018-09-10T18:39:06.930Z,19.03
2018-09-10T18:41:35.634Z,19.01
2018-09-10T18:44:04.394Z,19.00
2018-09-10T18:46:33.179Z,18.99
2018-09-10T18:49:02.017Z,18.97
2018-09-10T18:51:31.276Z,18.97
2018-09-10T18:54:00.044Z,18.96
2018-09-10T18:56:29.505Z,18.97
2018-09-10T18:58:58.236Z,18.96
2018-09-10T19:01:27.486Z,18.96
2018-09-10T19:03:56.199Z,18.93
2018-09-10T19:06:25.422Z,18.90
2018-09-10T19:08:54.774Z,18.87
2018-09-10T19:11:23.809Z,18.85
2018-09-10T19:13:52.791Z,18.84
2018-09-10T19:16:21.957Z,18.82
2018-09-10T19:18:51.867Z,18.80
2018-09-10T19:21:20.947Z,18.78
2018-09-10T19:23:50.213Z,18.76
2018-09-10T19:26:19.087Z,18.72
2018-09-10T19:28:48.247Z,18.68
2018-09-10T19:31:17.593Z,18.66
2018-09-10T19:33:53.055Z,18.63
2018-09-10T19:36:22.132Z,18.62
2018-09-10T19:38:51.376Z,18.60
2018-09-10T19:41:20.121Z,18.55
2018-09-10T19:43:48.885Z,18.52
2018-09-10T19:46:17.805Z,18.49
2018-09-10T19:48:46.681Z,18.48
2018-09-10T19:51:15.851Z,18.47
2018-09-10T19:53:44.921Z,18.44
2018-09-10T19:56:13.695Z,18.42
2018-09-10T19:58:43.338Z,18.39
2018-09-10T20:01:12.429Z,18.37
2018-09-10T20:03:41.640Z,18.32
2018-09-10T20:06:10.791Z,18.29
2018-09-10T20:08:39.878Z,18.28
2018-09-10T20:11:09.088Z,18.25
2018-09-10T20:13:37.861Z,18.28
2018-09-10T20:16:06.765Z,18.26
2018-09-10T20:18:35.547Z,18.23
2018-09-10T20:21:04.484Z,18.18
2018-09-10T20:23:33.535Z,18.18
2018-09-10T20:26:02.638Z,18.18
2018-09-10T20:28:31.446Z,18.21
2018-09-10T20:31:00.427Z,18.22
2018-09-10T20:33:29.277Z,18.21
2018-09-10T20:35:58.072Z,18.21
2018-09-10T20:38:26.795Z,18.21
2018-09-10T20:40:55.649Z,18.21
2018-09-10T20:43:24.416Z,18.20
2018-09-10T20:45:53.503Z,18.20
2018-09-10T20:48:22.556Z,18.22
2018-09-10T20:50:51.310Z,18.23
2018-09-10T20:53:20.132Z,18.22
2018-09-10T20:55:49.294Z,18.22
2018-09-10T20:58:18.376Z,18.20
2018-09-10T21:00:47.551Z,18.20
2018-09-10T21:03:16.691Z,18.18
2018-09-10T21:05:45.905Z,18.15
2018-09-10T21:08:14.775Z,18.14
2018-09-10T21:10:44.014Z,18.12
2018-09-10T21:13:13.130Z,18.11
2018-09-10T21:15:42.185Z,18.09
2018-09-10T21:18:11.176Z,18.10
2018-09-10T21:20:40.667Z,18.11
2018-09-10T21:23:09.558Z,18.10
2018-09-10T21:25:38.518Z,18.09
2018-09-10T21:28:07.338Z,18.07
2018-09-10T21:30:36.307Z,18.05
2018-09-10T21:33:05.484Z,17.98
2018-09-10T21:35:34.271Z,17.95
2018-09-10T21:38:03.055Z,17.87
2018-09-10T21:40:32.036Z,17.82
2018-09-10T21:43:01.108Z,17.78
2018-09-10T21:45:30.475Z,17.70
2018-09-10T21:47:59.343Z,17.68
2018-09-10T21:50:35.504Z,17.67
2018-09-10T21:53:04.701Z,17.67
2018-09-10T21:55:33.537Z,17.64
2018-09-10T21:58:02.506Z,17.64
2018-09-10T22:00:31.293Z,17.65
2018-09-10T22:03:00.652Z,17.61
2018-09-10T22:05:29.744Z,17.60
2018-09-10T22:07:58.635Z,17.64
2018-09-10T22:10:27.804Z,17.64
2018-09-10T22:12:56.519Z,17.64
2018-09-10T22:15:25.656Z,17.64
2018-09-10T22:17:54.508Z,17.60
2018-09-10T22:20:23.327Z,17.61
2018-09-10T22:22:52.123Z,17.63
2018-09-10T22:25:21.159Z,17.61
2018-09-10T22:27:50.151Z,17.63
2018-09-10T22:30:18.947Z,17.59
2018-09-10T22:32:47.714Z,17.56
2018-09-10T22:35:16.851Z,17.53
2018-09-10T22:37:45.934Z,17.49
2018-09-10T22:40:14.710Z,17.49
2018-09-10T22:42:44.169Z,17.46
2018-09-10T22:45:13.246Z,17.44
2018-09-10T22:47:42.609Z,17.43
2018-09-10T22:50:11.704Z,17.36
2018-09-10T22:52:40.716Z,17.31
2018-09-10T22:55:09.518Z,17.30
2018-09-10T22:57:38.345Z,17.28
2018-09-10T23:00:08.175Z,17.28
2018-09-10T23:02:37.965Z,17.27
2018-09-10T23:05:06.930Z,17.24
2018-09-10T23:07:35.698Z,17.22
2018-09-10T23:10:05.699Z,17.20
2018-09-10T23:12:34.748Z,17.20
2018-09-10T23:15:03.543Z,17.20
2018-09-10T23:17:32.415Z,17.20
2018-09-10T23:20:01.521Z,17.18
2018-09-10T23:22:30.427Z,17.15
2018-09-10T23:24:59.834Z,17.12
2018-09-10T23:27:29.446Z,17.10
2018-09-10T23:29:58.224Z,17.09
2018-09-10T23:32:26.967Z,17.02
2018-09-10T23:34:55.982Z,16.98
2018-09-10T23:37:31.190Z,16.91
2018-09-10T23:40:00.263Z,16.85
2018-09-10T23:42:29.263Z,16.78
2018-09-10T23:44:58.905Z,16.68
2018-09-10T23:47:27.684Z,16.65
2018-09-10T23:49:59.398Z,16.61
2018-09-10T23:52:28.225Z,16.58
2018-09-10T23:54:57.571Z,16.58
2018-09-10T23:57:26.714Z,16.54
2018-09-10T23:59:55.504Z,16.53
